createdAt,value
2018-04-02T00:01:53.027Z,90.00
2018-04-02T00:04:56.469Z,90.30
2018-04-02T00:07:59.834Z,90.40
2018-04-02T00:11:03.181Z,90.60
2018-04-02T00:17:14.679Z,91.10
2018-04-02T00:20:18.035Z,91.20
2018-04-02T00:23:21.402Z,91.40
2018-04-02T00:26:24.780Z,91.70
2018-04-02T00:29:28.181Z,91.80
2018-04-02T00:32:31.528Z,92.00
2018-04-02T00:35:35.658Z,92.20
2018-04-02T00:38:39.050Z,92.20
2018-04-02T00:41:42.518Z,92.70
2018-04-02T00:44:46.012Z,92.70
2018-04-02T00:47:49.370Z,92.70
2018-04-02T00:50:52.712Z,92.70
2018-04-02T00:53:56.084Z,92.90
2018-04-02T00:56:59.440Z,92.80
2018-04-02T01:00:03.560Z,93.20
2018-04-02T01:03:06.940Z,93.20
2018-04-02T01:06:10.361Z,93.30
2018-04-02T01:09:13.681Z,93.50
2018-04-02T01:12:17.023Z,93.50
2018-04-02T01:15:21.176Z,93.70
2018-04-02T01:18:25.290Z,93.80
2018-04-02T01:21:28.626Z,93.80
2018-04-02T01:24:32.098Z,93.90
2018-04-02T01:27:35.458Z,94.10
2018-04-02T01:30:40.325Z,94.20
2018-04-02T01:33:43.678Z,94.20
2018-04-02T01:36:47.070Z,94.20
2018-04-02T01:39:50.422Z,94.40
2018-04-02T01:42:53.795Z,94.40
2018-04-02T01:45:57.144Z,94.30
2018-04-02T01:49:00.489Z,94.40
2018-04-02T01:52:03.834Z,94.40
2018-04-02T01:55:07.205Z,94.40
2018-04-02T01:58:11.329Z,94.50
2018-04-02T02:01:14.699Z,94.50
2018-04-02T02:04:18.854Z,95.10
2018-04-02T02:07:22.341Z,94.70
2018-04-02T02:10:26.464Z,95.20
2018-04-02T02:13:29.846Z,95.20
2018-04-02T02:16:33.978Z,95.50
2018-04-02T02:19:37.342Z,95.50
2018-04-02T02:22:41.509Z,95.50
2018-04-02T02:25:45.588Z,95.40
2018-04-02T02:28:48.960Z,95.40
2018-04-02T02:31:52.300Z,95.30
2018-04-02T02:34:56.457Z,95.10
2018-04-02T02:37:59.792Z,95.10
2018-04-02T02:41:03.151Z,94.80
2018-04-02T02:44:06.493Z,94.60
2018-04-02T02:47:09.874Z,94.30
2018-04-02T02:50:13.227Z,94.30
2018-04-02T02:53:16.613Z,94.10
2018-04-02T02:56:19.943Z,94.10
2018-04-02T02:59:23.297Z,94.10
2018-04-02T03:02:27.487Z,93.60
2018-04-02T03:05:30.842Z,93.60
2018-04-02T03:08:34.320Z,93.20
2018-04-02T03:11:38.433Z,92.90
2018-04-02T03:14:42.558Z,92.70
2018-04-02T03:17:46.669Z,92.60
2018-04-02T03:20:50.931Z,92.60
2018-04-02T03:23:54.392Z,92.60
2018-04-02T03:26:58.521Z,92.20
2018-04-02T03:30:01.871Z,92.20
2018-04-02T03:33:05.211Z,92.20
2018-04-02T03:36:09.386Z,92.20
2018-04-02T03:39:12.725Z,92.20
2018-04-02T03:42:16.902Z,92.20
2018-04-02T03:45:20.238Z,92.20
2018-04-02T03:48:24.359Z,92.40
2018-04-02T03:51:28.562Z,92.50
2018-04-02T03:54:32.678Z,92.90
2018-04-02T03:57:36.026Z,92.50
2018-04-02T04:00:39.366Z,92.50
2018-04-02T04:03:44.209Z,92.50
2018-04-02T04:06:48.332Z,92.60
2018-04-02T04:09:52.449Z,92.60
2018-04-02T04:12:56.556Z,92.60
2018-04-02T04:15:59.910Z,92.60
2018-04-02T04:19:03.252Z,92.70
2018-04-02T04:22:06.643Z,92.70
2018-04-02T04:25:10.777Z,92.80
2018-04-02T04:28:14.944Z,92.90
2018-04-02T04:31:18.294Z,92.90
2018-04-02T04:34:22.405Z,92.60
2018-04-02T04:37:26.530Z,92.50
2018-04-02T04:40:30.698Z,92.40
2018-04-02T04:43:34.036Z,92.40
2018-04-02T04:46:38.149Z,92.50
2018-04-02T04:49:41.528Z,92.40
2018-04-02T04:52:44.872Z,92.50
2018-04-02T04:55:48.224Z,92.30
2018-04-02T04:58:51.577Z,92.20
2018-04-02T05:01:54.925Z,92.10
2018-04-02T05:04:58.344Z,92.00
2018-04-02T05:08:01.694Z,91.90
2018-04-02T05:11:05.043Z,91.80
2018-04-02T05:14:09.165Z,92.00
2018-04-02T05:17:13.273Z,91.70
2018-04-02T05:20:16.627Z,91.70
2018-04-02T05:23:20.009Z,91.50
2018-04-02T05:26:23.404Z,91.30
2018-04-02T05:29:26.752Z,91.20
2018-04-02T05:32:30.233Z,91.10
2018-04-02T05:35:33.797Z,91.10
2018-04-02T05:38:37.166Z,91.00
2018-04-02T05:41:40.545Z,90.90
2018-04-02T05:44:43.919Z,90.80
2018-04-02T05:47:47.281Z,91.40
2018-04-02T05:50:51.596Z,90.70
2018-04-02T05:53:55.903Z,91.10
2018-04-02T05:56:59.292Z,90.80
2018-04-02T06:00:03.682Z,90.30
2018-04-02T06:03:07.031Z,90.40
2018-04-02T06:06:10.470Z,90.10
2018-04-02T06:09:13.839Z,90.00
2018-04-02T06:12:17.944Z,89.70
2018-04-02T06:15:21.449Z,89.60
2018-04-02T06:18:24.909Z,89.40
2018-04-02T06:21:28.259Z,89.40
2018-04-02T06:24:32.504Z,89.70
2018-04-02T06:27:35.829Z,89.70
2018-04-02T06:30:39.201Z,89.50
2018-04-02T06:33:42.547Z,89.00
2018-04-02T06:36:46.690Z,88.30
2018-04-02T06:39:50.816Z,87.60
2018-04-02T06:42:54.978Z,87.60
2018-04-02T06:45:58.346Z,87.60
2018-04-02T06:49:01.736Z,87.40
2018-04-02T06:52:05.856Z,86.20
2018-04-02T06:55:09.344Z,86.20
2018-04-02T06:58:12.732Z,85.90
2018-04-02T07:01:16.081Z,86.20
2018-04-02T07:04:19.421Z,85.30
2018-04-02T07:07:23.535Z,84.30
2018-04-02T07:10:27.680Z,82.70
2018-04-02T07:13:31.841Z,83.30
2018-04-02T07:16:35.190Z,83.30
2018-04-02T07:19:39.405Z,82.50
2018-04-02T07:22:43.518Z,82.00
2018-04-02T07:25:46.865Z,82.00
2018-04-02T07:28:50.219Z,81.40
2018-04-02T07:31:54.337Z,81.00
2018-04-02T07:34:58.456Z,80.60
2018-04-02T07:38:02.584Z,79.70
2018-04-02T07:41:06.694Z,80.70
2018-04-02T07:44:10.905Z,79.40
2018-04-02T07:47:15.025Z,79.20
2018-04-02T07:50:19.185Z,78.80
2018-04-02T07:53:22.538Z,78.20
2018-04-02T07:56:26.737Z,78.90
2018-04-02T07:59:30.856Z,78.90
2018-04-02T08:02:34.969Z,77.60
2018-04-02T08:05:40.745Z,77.20
2018-04-02T08:08:44.881Z,77.70
2018-04-02T08:11:48.257Z,77.70
2018-04-02T08:14:52.402Z,74.30
2018-04-02T08:17:55.758Z,74.30
2018-04-02T08:20:59.399Z,73.90
2018-04-02T08:24:02.769Z,73.30
2018-04-02T08:27:06.128Z,72.60
2018-04-02T08:30:09.491Z,72.80
2018-04-02T08:33:13.685Z,69.60
2018-04-02T08:36:17.038Z,69.60
2018-04-02T08:39:20.393Z,69.30
2018-04-02T08:42:24.573Z,67.10
2018-04-02T08:45:27.936Z,67.70
2018-04-02T08:48:31.340Z,67.60
2018-04-02T08:51:34.699Z,68.30
2018-04-02T08:54:38.831Z,65.80
2018-04-02T08:57:43.008Z,63.70
2018-04-02T09:00:46.381Z,63.70
2018-04-02T09:03:49.762Z,64.20
2018-04-02T09:06:53.113Z,63.80
2018-04-02T09:09:57.238Z,62.90
2018-04-02T09:13:02.112Z,63.00
2018-04-02T09:16:05.686Z,63.00
2018-04-02T09:19:09.044Z,62.60
2018-04-02T09:22:12.395Z,61.20
2018-04-02T09:25:16.508Z,62.10
2018-04-02T09:28:20.616Z,62.20
2018-04-02T09:31:23.965Z,62.20
2018-04-02T09:34:27.353Z,59.50
2018-04-02T09:37:30.732Z,59.20
2018-04-02T09:40:34.920Z,58.10
2018-04-02T09:43:38.293Z,58.10
2018-04-02T09:46:41.767Z,57.90
2018-04-02T09:49:45.145Z,57.00
2018-04-02T09:52:49.266Z,57.90
2018-04-02T09:55:53.539Z,57.90
2018-04-02T09:58:56.902Z,57.80
2018-04-02T10:02:00.240Z,59.40
2018-04-02T10:05:03.754Z,57.50
2018-04-02T10:08:07.025Z,58.20
2018-04-02T10:11:10.379Z,56.90
2018-04-02T10:14:14.513Z,56.60
2018-04-02T10:17:17.873Z,56.50
2018-04-02T10:20:21.267Z,55.40
2018-04-02T10:23:24.641Z,55.20
2018-04-02T10:26:28.015Z,54.50
2018-04-02T10:29:31.365Z,54.40
2018-04-02T10:32:34.717Z,55.00
2018-04-02T10:35:38.265Z,55.50
2018-04-02T10:38:41.621Z,55.40
2018-04-02T10:41:45.007Z,54.80
2018-04-02T10:44:48.381Z,55.50
2018-04-02T10:47:52.543Z,55.20
2018-04-02T10:50:55.891Z,55.10
2018-04-02T10:54:00.044Z,53.20
2018-04-02T10:57:03.417Z,53.70
2018-04-02T11:00:07.569Z,55.60
2018-04-02T11:03:10.928Z,55.50
2018-04-02T11:06:15.093Z,54.50
2018-04-02T11:09:18.419Z,54.00
2018-04-02T11:12:21.852Z,53.40
2018-04-02T11:15:25.983Z,53.00
2018-04-02T11:18:29.349Z,53.00
2018-04-02T11:21:32.729Z,52.90
2018-04-02T11:24:36.089Z,52.40
2018-04-02T11:27:39.683Z,50.20
2018-04-02T11:30:43.025Z,51.40
2018-04-02T11:33:46.384Z,51.80
2018-04-02T11:36:49.848Z,52.60
2018-04-02T11:39:53.231Z,52.40
2018-04-02T11:42:56.603Z,52.40
2018-04-02T11:45:59.968Z,53.00
2018-04-02T11:49:04.117Z,53.60
2018-04-02T11:52:07.473Z,53.50
2018-04-02T11:55:10.889Z,53.30
2018-04-02T11:58:15.112Z,53.60
2018-04-02T12:01:18.483Z,53.50
2018-04-02T12:04:21.875Z,52.90
2018-04-02T12:07:25.310Z,53.00
2018-04-02T12:10:28.670Z,52.10
2018-04-02T12:13:32.041Z,50.50
2018-04-02T12:16:35.389Z,50.60
2018-04-02T12:19:39.559Z,51.30
2018-04-02T12:22:42.911Z,51.00
2018-04-02T12:25:47.035Z,48.50
2018-04-02T12:28:51.282Z,49.70
2018-04-02T12:31:54.678Z,49.70
2018-04-02T12:34:58.034Z,47.30
2018-04-02T12:38:01.374Z,48.20
2018-04-02T12:41:04.787Z,48.70
2018-04-02T12:44:08.140Z,49.40
2018-04-02T12:47:12.248Z,49.60
2018-04-02T12:50:15.609Z,49.60
2018-04-02T12:53:18.971Z,49.20
2018-04-02T12:56:22.365Z,49.60
2018-04-02T12:59:26.545Z,49.30
2018-04-02T13:02:29.910Z,49.30
2018-04-02T13:05:33.513Z,49.30
2018-04-02T13:08:36.866Z,48.50
2018-04-02T13:11:40.989Z,48.60
2018-04-02T13:14:45.129Z,49.40
2018-04-02T13:17:48.489Z,49.40
2018-04-02T13:20:51.854Z,49.10
2018-04-02T13:23:55.233Z,50.50
2018-04-02T13:26:58.597Z,51.00
2018-04-02T13:30:01.963Z,51.80
2018-04-02T13:33:05.304Z,51.50
2018-04-02T13:36:09.469Z,50.40
2018-04-02T13:39:12.858Z,50.40
2018-04-02T13:42:16.222Z,49.20
2018-04-02T13:45:20.378Z,50.80
2018-04-02T13:48:23.778Z,50.70
2018-04-02T13:51:27.150Z,50.20
2018-04-02T13:54:30.579Z,50.20
2018-04-02T13:57:33.933Z,50.40
2018-04-02T14:00:38.097Z,50.60
2018-04-02T14:03:41.445Z,50.60
2018-04-02T14:06:45.562Z,49.30
2018-04-02T14:09:49.702Z,49.50
2018-04-02T14:12:53.059Z,49.50
2018-04-02T14:15:56.443Z,48.90
2018-04-02T14:18:59.902Z,48.80
2018-04-02T14:22:03.256Z,47.20
2018-04-02T14:25:06.623Z,48.00
2018-04-02T14:28:09.993Z,47.20
2018-04-02T14:31:13.370Z,46.90
2018-04-02T14:34:17.608Z,46.30
2018-04-02T14:37:21.743Z,46.80
2018-04-02T14:40:25.137Z,46.80
2018-04-02T14:43:28.511Z,46.90
2018-04-02T14:46:32.657Z,46.60
2018-04-02T14:49:36.022Z,46.60
2018-04-02T14:52:40.197Z,48.10
2018-04-02T14:55:43.554Z,47.40
2018-04-02T14:58:47.678Z,47.90
2018-04-02T15:01:51.046Z,47.20
2018-04-02T15:04:54.487Z,45.80
2018-04-02T15:07:57.863Z,46.30
2018-04-02T15:11:01.985Z,45.80
2018-04-02T15:14:06.140Z,45.80
2018-04-02T15:17:09.526Z,45.80
2018-04-02T15:20:12.901Z,46.90
2018-04-02T15:23:17.039Z,47.60
2018-04-02T15:26:20.400Z,47.60
2018-04-02T15:29:23.749Z,48.20
2018-04-02T15:32:27.153Z,48.10
2018-04-02T15:35:30.531Z,48.80
2018-04-02T15:38:33.878Z,48.70
2018-04-02T15:41:37.228Z,48.70
2018-04-02T15:44:40.591Z,48.70
2018-04-02T15:47:44.092Z,48.80
2018-04-02T15:50:47.563Z,48.90
2018-04-02T15:53:50.979Z,48.50
2018-04-02T15:56:54.402Z,48.70
2018-04-02T15:59:57.814Z,49.20
2018-04-02T16:03:02.148Z,49.60
2018-04-02T16:06:05.538Z,49.60
2018-04-02T16:09:08.929Z,49.60
2018-04-02T16:12:13.058Z,49.50
2018-04-02T16:15:17.325Z,48.60
2018-04-02T16:18:20.889Z,48.50
2018-04-02T16:21:24.294Z,48.00
2018-04-02T16:24:27.692Z,47.40
2018-04-02T16:27:31.062Z,48.90
2018-04-02T16:30:35.178Z,50.40
2018-04-02T16:33:38.869Z,49.90
2018-04-02T16:39:43.375Z,50.90
2018-04-02T16:42:46.843Z,50.90
2018-04-02T16:45:50.968Z,51.40
2018-04-02T16:48:54.396Z,51.40
2018-04-02T16:51:57.769Z,52.00
2018-04-02T16:55:01.189Z,52.50
2018-04-02T16:58:04.568Z,52.90
2018-04-02T17:01:08.015Z,53.00
2018-04-02T17:04:11.392Z,53.10
2018-04-02T17:07:14.735Z,53.30
2018-04-02T17:10:18.098Z,53.80
2018-04-02T17:13:21.476Z,54.50
2018-04-02T17:16:24.876Z,54.50
2018-04-02T17:19:28.257Z,54.60
2018-04-02T17:22:32.386Z,55.80
2018-04-02T17:25:35.820Z,55.80
2018-04-02T17:28:39.186Z,56.50
2018-04-02T17:31:42.624Z,56.90
2018-04-02T17:34:46.028Z,55.30
2018-04-02T17:37:49.400Z,54.80
2018-04-02T17:40:52.783Z,54.50
2018-04-02T17:43:56.314Z,55.20
2018-04-02T17:46:59.761Z,56.20
2018-04-02T17:50:03.300Z,56.00
2018-04-02T17:53:06.692Z,56.40
2018-04-02T17:56:10.221Z,56.70
2018-04-02T17:59:13.632Z,57.30
2018-04-02T18:02:16.978Z,58.40
2018-04-02T18:05:21.127Z,58.10
2018-04-02T18:08:24.522Z,58.10
2018-04-02T18:11:27.907Z,58.30
2018-04-02T18:14:31.276Z,58.40
2018-04-02T18:17:34.667Z,58.90
2018-04-02T18:20:38.039Z,59.20
2018-04-02T18:23:41.420Z,59.70
2018-04-02T18:26:44.802Z,59.70
2018-04-02T18:29:48.190Z,61.70
2018-04-02T18:32:52.446Z,67.00
2018-04-02T18:35:55.855Z,67.00
2018-04-02T18:38:59.252Z,67.50
2018-04-02T18:42:02.648Z,66.80
2018-04-02T18:45:06.180Z,68.20
2018-04-02T18:48:09.533Z,70.60
2018-04-02T18:51:12.934Z,72.40
2018-04-02T18:54:16.286Z,72.00
2018-04-02T18:57:19.686Z,72.30
2018-04-02T19:00:24.576Z,74.60
2018-04-02T19:03:27.982Z,74.60
2018-04-02T19:06:31.348Z,74.50
2018-04-02T19:09:35.533Z,76.00
2018-04-02T19:12:39.704Z,76.30
2018-04-02T19:15:43.070Z,76.20
2018-04-02T19:18:47.293Z,75.60
2018-04-02T19:21:51.446Z,75.40
2018-04-02T19:24:54.851Z,75.30
2018-04-02T19:27:58.248Z,73.50
2018-04-02T19:31:01.736Z,72.20
2018-04-02T19:34:05.130Z,72.30
2018-04-02T19:37:08.494Z,72.10
2018-04-02T19:40:12.649Z,72.50
2018-04-02T19:43:16.080Z,72.00
2018-04-02T19:46:19.476Z,72.40
2018-04-02T19:49:22.890Z,72.70
2018-04-02T19:52:26.256Z,73.40
2018-04-02T19:55:29.793Z,74.00
2018-04-02T19:58:33.155Z,75.00
2018-04-02T20:01:36.541Z,74.50
2018-04-02T20:04:39.945Z,75.20
2018-04-02T20:07:43.323Z,76.20
2018-04-02T20:10:47.484Z,76.90
2018-04-02T20:13:50.913Z,76.90
2018-04-02T20:16:54.305Z,77.80
2018-04-02T20:19:57.740Z,78.30
2018-04-02T20:23:01.916Z,80.00
2018-04-02T20:26:05.301Z,80.00
2018-04-02T20:29:08.688Z,80.30
2018-04-02T20:32:12.097Z,79.80
2018-04-02T20:35:15.494Z,80.00
2018-04-02T20:38:18.843Z,80.70
2018-04-02T20:41:22.206Z,82.70
2018-04-02T20:44:25.638Z,83.90
2018-04-02T20:47:29.917Z,85.50
2018-04-02T20:50:33.330Z,85.50
2018-04-02T20:53:36.713Z,86.80
2018-04-02T20:56:40.219Z,87.50
2018-04-02T20:59:43.587Z,87.10
2018-04-02T21:02:47.021Z,87.20
2018-04-02T21:05:50.531Z,88.00
2018-04-02T21:08:53.906Z,88.00
2018-04-02T21:12:00.164Z,87.80
2018-04-02T21:15:03.569Z,87.60
2018-04-02T21:18:06.930Z,87.00
2018-04-02T21:21:10.349Z,87.90
2018-04-02T21:24:14.494Z,89.00
2018-04-02T21:27:17.963Z,89.00
2018-04-02T21:30:22.236Z,89.40
2018-04-02T21:33:25.617Z,89.40
2018-04-02T21:36:28.990Z,90.00
2018-04-02T21:39:33.135Z,89.60
2018-04-02T21:42:36.511Z,89.60
2018-04-02T21:45:41.298Z,90.30
2018-04-02T21:48:44.667Z,90.30
2018-04-02T21:51:48.038Z,90.50
2018-04-02T21:54:52.425Z,91.20
2018-04-02T21:57:55.870Z,91.20
2018-04-02T22:00:59.234Z,91.50
2018-04-02T22:04:02.581Z,91.60
2018-04-02T22:07:06.023Z,91.60
2018-04-02T22:10:09.409Z,92.00
2018-04-02T22:13:12.769Z,92.40
2018-04-02T22:16:16.128Z,92.10
2018-04-02T22:19:19.485Z,92.40
2018-04-02T22:22:22.864Z,92.50
2018-04-02T22:25:26.221Z,92.30
2018-04-02T22:28:29.590Z,92.70
2018-04-02T22:31:32.959Z,92.90
2018-04-02T22:34:37.083Z,93.20
2018-04-02T22:37:40.446Z,93.20
2018-04-02T22:40:43.816Z,93.40
2018-04-02T22:43:47.177Z,93.60
2018-04-02T22:46:50.537Z,93.50
2018-04-02T22:49:53.869Z,93.40
2018-04-02T22:52:57.243Z,93.50
2018-04-02T22:56:00.590Z,93.50
2018-04-02T22:59:03.948Z,93.40
2018-04-02T23:02:08.099Z,94.20
2018-04-02T23:05:11.444Z,93.80
2018-04-02T23:08:16.537Z,94.00
2018-04-02T23:11:19.971Z,94.00
2018-04-02T23:14:23.356Z,94.00
2018-04-02T23:17:26.926Z,94.30
2018-04-02T23:20:30.273Z,94.60
2018-04-02T23:23:33.706Z,94.70
2018-04-02T23:26:37.838Z,94.60
2018-04-02T23:29:41.957Z,94.50
2018-04-02T23:32:45.309Z,94.50
2018-04-02T23:35:49.437Z,94.80
2018-04-02T23:38:53.553Z,94.70
2018-04-02T23:41:56.897Z,94.70
2018-04-02T23:45:00.243Z,94.70
2018-04-02T23:48:03.598Z,94.30
2018-04-02T23:51:06.944Z,94.10
2018-04-02T23:54:12.150Z,93.70
2018-04-02T23:57:15.513Z,93.80
